createdAt,value
2018-11-07T00:00:01.318Z,95482.06
2018-11-07T00:02:30.756Z,95478.20
2018-11-07T00:04:59.577Z,95477.39
2018-11-07T00:07:28.463Z,95477.22
2018-11-07T00:09:57.237Z,95471.38
2018-11-07T00:12:26.037Z,95473.22
2018-11-07T00:14:54.790Z,95467.16
2018-11-07T00:17:23.602Z,95466.21
2018-11-07T00:19:52.379Z,95471.46
2018-11-07T00:22:21.126Z,95468.39
2018-11-07T00:24:49.855Z,95474.22
2018-11-07T00:27:18.635Z,95473.41
2018-11-07T00:29:47.356Z,95478.47
2018-11-07T00:32:16.133Z,95472.72
2018-11-07T00:34:44.923Z,95467.84
2018-11-07T00:37:13.727Z,95470.95
2018-11-07T00:39:42.487Z,95471.09
2018-11-07T00:42:11.235Z,95465.83
2018-11-07T00:44:40.005Z,95471.48
2018-11-07T00:47:08.783Z,95466.87
2018-11-07T00:49:37.587Z,95475.90
2018-11-07T00:52:06.647Z,95475.11
2018-11-07T00:54:35.414Z,95470.67
2018-11-07T00:57:04.204Z,95470.03
2018-11-07T00:59:32.950Z,95466.05
2018-11-07T01:02:01.738Z,95471.41
2018-11-07T01:04:30.550Z,95473.41
2018-11-07T01:06:59.366Z,95473.09
2018-11-07T01:09:28.176Z,95466.63
2018-11-07T01:11:56.937Z,95464.71
2018-11-07T01:14:25.720Z,95463.92
2018-11-07T01:16:54.571Z,95462.29
2018-11-07T01:19:23.340Z,95462.05
2018-11-07T01:21:52.096Z,95454.44
2018-11-07T01:24:20.846Z,95450.20
2018-11-07T01:26:49.643Z,95448.14
2018-11-07T01:29:18.399Z,95451.41
2018-11-07T01:31:47.145Z,95447.83
2018-11-07T01:34:15.968Z,95445.60
2018-11-07T01:36:44.749Z,95445.94
2018-11-07T01:39:13.542Z,95446.09
2018-11-07T01:41:42.293Z,95444.30
2018-11-07T01:44:12.394Z,95442.15
2018-11-07T01:46:41.136Z,95449.20
2018-11-07T01:49:09.943Z,95444.52
2018-11-07T01:51:38.785Z,95445.03
2018-11-07T01:54:07.569Z,95449.77
2018-11-07T01:56:36.403Z,95447.32
2018-11-07T01:59:05.292Z,95449.13
2018-11-07T02:01:34.133Z,95450.80
2018-11-07T02:04:02.892Z,95449.69
2018-11-07T02:06:31.658Z,95447.39
2018-11-07T02:09:00.673Z,95450.05
2018-11-07T02:11:29.418Z,95447.45
2018-11-07T02:13:58.273Z,95447.78
2018-11-07T02:16:27.014Z,95449.59
2018-11-07T02:18:55.744Z,95447.80
2018-11-07T02:21:24.559Z,95450.12
2018-11-07T02:23:53.341Z,95442.61
2018-11-07T02:26:22.218Z,95447.23
2018-11-07T02:28:51.114Z,95441.36
2018-11-07T02:31:19.915Z,95451.50
2018-11-07T02:33:48.656Z,95444.91
2018-11-07T02:36:17.420Z,95440.87
2018-11-07T02:38:46.207Z,95447.09
2018-11-07T02:41:15.286Z,95444.03
2018-11-07T02:43:44.079Z,95435.92
2018-11-07T02:46:12.836Z,95445.36
2018-11-07T02:48:41.607Z,95438.98
2018-11-07T02:51:10.338Z,95445.41
2018-11-07T02:53:39.200Z,95452.92
2018-11-07T02:56:08.018Z,95446.60
2018-11-07T02:58:36.782Z,95451.14
2018-11-07T03:01:05.948Z,95454.25
2018-11-07T03:03:34.829Z,95451.46
2018-11-07T03:06:03.894Z,95458.14
2018-11-07T03:08:33.404Z,95449.28
2018-11-07T03:11:03.618Z,95447.64
2018-11-07T03:13:32.734Z,95452.54
2018-11-07T03:16:01.514Z,95448.95
2018-11-07T03:18:30.282Z,95449.94
2018-11-07T03:20:59.016Z,95447.70
2018-11-07T03:23:28.046Z,95447.41
2018-11-07T03:25:56.876Z,95444.97
2018-11-07T03:28:25.610Z,95449.06
2018-11-07T03:30:54.395Z,95448.13
2018-11-07T03:33:23.182Z,95453.08
2018-11-07T03:35:51.915Z,95448.17
2018-11-07T03:38:20.703Z,95452.58
2018-11-07T03:40:49.519Z,95450.13
2018-11-07T03:43:18.261Z,95462.42
2018-11-07T03:45:52.172Z,95451.48
2018-11-07T03:48:20.966Z,95452.99
2018-11-07T03:50:49.722Z,95460.34
2018-11-07T03:53:18.555Z,95455.80
2018-11-07T03:55:47.449Z,95463.97
2018-11-07T03:58:16.274Z,95461.98
2018-11-07T04:00:45.233Z,95460.54
2018-11-07T04:03:13.990Z,95459.23
2018-11-07T04:05:42.784Z,95460.70
2018-11-07T04:08:11.522Z,95461.84
2018-11-07T04:10:40.276Z,95468.53
2018-11-07T04:13:09.058Z,95467.85
2018-11-07T04:15:37.824Z,95468.05
2018-11-07T04:18:06.659Z,95463.97
2018-11-07T04:20:35.418Z,95467.06
2018-11-07T04:23:04.490Z,95464.95
2018-11-07T04:25:33.328Z,95467.23
2018-11-07T04:28:02.246Z,95465.11
2018-11-07T04:30:31.010Z,95468.53
2018-11-07T04:32:59.761Z,95467.23
2018-11-07T04:35:28.479Z,95471.80
2018-11-07T04:37:57.269Z,95475.74
2018-11-07T04:40:26.259Z,95475.58
2018-11-07T04:42:55.000Z,95483.44
2018-11-07T04:45:23.776Z,95481.02
2018-11-07T04:47:52.521Z,95484.25
2018-11-07T04:50:21.246Z,95483.27
2018-11-07T04:52:50.006Z,95491.43
2018-11-07T04:55:18.780Z,95495.34
2018-11-07T04:57:47.550Z,95493.38
2018-11-07T05:00:16.647Z,95496.97
2018-11-07T05:02:45.642Z,95494.72
2018-11-07T05:05:14.429Z,95500.09
2018-11-07T05:07:43.184Z,95506.78
2018-11-07T05:10:12.396Z,95506.92
2018-11-07T05:12:41.241Z,95509.07
2018-11-07T05:15:10.683Z,95513.31
2018-11-07T05:17:39.494Z,95512.97
2018-11-07T05:20:09.986Z,95509.70
2018-11-07T05:22:38.817Z,95509.54
2018-11-07T05:25:08.357Z,95513.46
2018-11-07T05:27:37.136Z,95516.86
2018-11-07T05:30:10.601Z,95517.69
2018-11-07T05:32:45.175Z,95520.47
2018-11-07T05:35:14.007Z,95522.39
2018-11-07T05:37:42.828Z,95528.94
2018-11-07T05:40:11.649Z,95526.63
2018-11-07T05:42:40.487Z,95532.83
2018-11-07T05:45:09.344Z,95526.63
2018-11-07T05:47:38.232Z,95528.27
2018-11-07T05:50:08.210Z,95534.79
2018-11-07T05:52:37.198Z,95531.06
2018-11-07T05:55:07.519Z,95536.75
2018-11-07T05:57:36.497Z,95533.32
2018-11-07T06:00:11.008Z,95527.94
2018-11-07T06:02:40.287Z,95536.42
2018-11-07T06:05:10.762Z,95531.98
2018-11-07T06:07:40.060Z,95538.81
2018-11-07T06:10:11.966Z,95533.30
2018-11-07T06:12:41.083Z,95541.95
2018-11-07T06:15:10.978Z,95540.26
2018-11-07T06:17:39.791Z,95535.52
2018-11-07T06:20:09.644Z,95539.23
2018-11-07T06:22:38.428Z,95537.56
2018-11-07T06:25:07.504Z,95543.04
2018-11-07T06:27:36.323Z,95540.38
2018-11-07T06:30:11.566Z,95540.36
2018-11-07T06:32:40.435Z,95542.73
2018-11-07T06:35:10.605Z,95539.93
2018-11-07T06:37:39.521Z,95550.13
2018-11-07T06:40:10.295Z,95546.80
2018-11-07T06:42:39.090Z,95546.62
2018-11-07T06:45:08.579Z,95541.65
2018-11-07T06:47:37.342Z,95540.77
2018-11-07T06:50:10.316Z,95542.31
2018-11-07T06:52:39.167Z,95538.41
2018-11-07T06:55:08.704Z,95545.17
2018-11-07T06:57:37.990Z,95539.41
2018-11-07T07:00:12.775Z,95541.83
2018-11-07T07:02:41.839Z,95545.19
2018-11-07T07:05:10.652Z,95544.78
2018-11-07T07:07:39.962Z,95544.52
2018-11-07T07:10:13.639Z,95544.02
2018-11-07T07:12:42.500Z,95535.52
2018-11-07T07:15:15.495Z,95533.79
2018-11-07T07:17:44.360Z,95536.61
2018-11-07T07:20:15.587Z,95537.06
2018-11-07T07:22:45.210Z,95535.80
2018-11-07T07:25:14.331Z,95532.58
2018-11-07T07:27:43.916Z,95537.22
2018-11-07T07:30:15.178Z,95537.28
2018-11-07T07:32:45.043Z,95539.80
2018-11-07T07:35:14.891Z,95531.13
2018-11-07T07:37:43.713Z,95534.73
2018-11-07T07:40:13.955Z,95532.80
2018-11-07T07:42:43.558Z,95531.36
2018-11-07T07:45:14.263Z,95535.67
2018-11-07T07:47:43.643Z,95535.80
2018-11-07T07:50:13.613Z,95538.44
2018-11-07T07:52:43.027Z,95532.86
2018-11-07T07:55:12.448Z,95530.41
2018-11-07T07:57:42.231Z,95531.48
2018-11-07T08:00:13.723Z,95530.91
2018-11-07T08:02:45.477Z,95531.72
2018-11-07T08:05:14.233Z,95530.66
2018-11-07T08:07:43.599Z,95528.20
2018-11-07T08:10:14.029Z,95530.88
2018-11-07T08:12:43.456Z,95533.75
2018-11-07T08:15:12.647Z,95534.80
2018-11-07T08:17:42.419Z,95534.20
2018-11-07T08:20:12.396Z,95524.25
2018-11-07T08:22:41.545Z,95531.38
2018-11-07T08:25:10.370Z,95527.19
2018-11-07T08:27:39.196Z,95524.85
2018-11-07T08:30:11.852Z,95525.93
2018-11-07T08:32:40.955Z,95517.93
2018-11-07T08:35:11.399Z,95517.14
2018-11-07T08:37:40.895Z,95518.36
2018-11-07T08:40:13.115Z,95512.52
2018-11-07T08:42:42.008Z,95516.29
2018-11-07T08:45:11.901Z,95513.66
2018-11-07T08:47:41.120Z,95505.33
2018-11-07T08:50:12.663Z,95504.82
2018-11-07T08:52:44.174Z,95508.58
2018-11-07T08:55:14.394Z,95509.39
2018-11-07T08:57:43.448Z,95508.69
2018-11-07T09:00:17.277Z,95507.95
2018-11-07T09:02:46.515Z,95505.13
2018-11-07T09:05:16.079Z,95503.04
2018-11-07T09:07:45.574Z,95504.36
2018-11-07T09:10:15.700Z,95498.89
2018-11-07T09:12:44.649Z,95493.73
2018-11-07T09:15:15.022Z,95495.55
2018-11-07T09:17:44.259Z,95488.15
2018-11-07T09:20:17.236Z,95482.88
2018-11-07T09:22:46.112Z,95479.65
2018-11-07T09:25:15.552Z,95472.34
2018-11-07T09:27:45.049Z,95476.00
2018-11-07T09:30:17.710Z,95469.82
2018-11-07T09:32:46.655Z,95464.95
2018-11-07T09:35:15.595Z,95461.90
2018-11-07T09:37:45.564Z,95451.81
2018-11-07T09:40:15.594Z,95454.27
2018-11-07T09:42:45.071Z,95449.38
2018-11-07T09:45:15.512Z,95442.34
2018-11-07T09:47:45.123Z,95442.30
2018-11-07T09:50:15.304Z,95437.32
2018-11-07T09:52:44.506Z,95439.81
2018-11-07T09:55:14.779Z,95435.29
2018-11-07T09:57:43.820Z,95433.56
2018-11-07T10:00:14.570Z,95433.25
2018-11-07T10:02:43.834Z,95427.36
2018-11-07T10:05:13.887Z,95431.27
2018-11-07T10:07:43.081Z,95427.81
2018-11-07T10:10:14.059Z,95423.76
2018-11-07T10:12:43.308Z,95421.12
2018-11-07T10:15:12.627Z,95419.19
2018-11-07T10:17:41.543Z,95416.48
2018-11-07T10:20:15.499Z,95414.88
2018-11-07T10:22:44.927Z,95411.00
2018-11-07T10:25:14.307Z,95409.09
2018-11-07T10:27:43.505Z,95400.66
2018-11-07T10:30:14.482Z,95406.80
2018-11-07T10:32:44.400Z,95397.50
2018-11-07T10:35:13.222Z,95397.23
2018-11-07T10:37:42.171Z,95395.21
2018-11-07T10:40:13.906Z,95394.70
2018-11-07T10:42:42.882Z,95387.00
2018-11-07T10:45:12.114Z,95386.28
2018-11-07T10:47:41.135Z,95382.70
2018-11-07T10:50:11.398Z,95373.80
2018-11-07T10:52:41.118Z,95383.34
2018-11-07T10:55:10.629Z,95370.16
2018-11-07T10:57:39.806Z,95375.13
2018-11-07T11:00:16.603Z,95368.13
2018-11-07T11:02:47.762Z,95363.56
2018-11-07T11:05:18.415Z,95363.62
2018-11-07T11:07:47.397Z,95360.06
2018-11-07T11:10:16.722Z,95362.56
2018-11-07T11:12:46.694Z,95361.14
2018-11-07T11:15:15.558Z,95362.56
2018-11-07T11:17:44.363Z,95356.58
2018-11-07T11:20:14.282Z,95349.88
2018-11-07T11:22:43.195Z,95345.01
2018-11-07T11:25:12.282Z,95338.45
2018-11-07T11:27:41.122Z,95343.78
2018-11-07T11:30:10.497Z,95343.02
2018-11-07T11:32:39.768Z,95339.06
2018-11-07T11:35:10.840Z,95340.70
2018-11-07T11:37:39.865Z,95339.52
2018-11-07T11:40:11.698Z,95336.34
2018-11-07T11:42:41.076Z,95335.30
2018-11-07T11:45:11.986Z,95326.89
2018-11-07T11:47:41.413Z,95321.45
2018-11-07T11:50:13.888Z,95317.80
2018-11-07T11:52:44.015Z,95322.57
2018-11-07T11:55:13.220Z,95311.06
2018-11-07T11:57:42.702Z,95312.21
2018-11-07T12:00:14.401Z,95311.41
2018-11-07T12:02:43.660Z,95305.80
2018-11-07T12:05:13.426Z,95306.67
2018-11-07T12:07:42.482Z,95304.36
2018-11-07T12:10:17.323Z,95306.82
2018-11-07T12:12:47.643Z,95304.48
2018-11-07T12:15:17.416Z,95303.67
2018-11-07T12:17:46.833Z,95299.83
2018-11-07T12:20:15.747Z,95301.96
2018-11-07T12:22:44.546Z,95295.72
2018-11-07T12:25:14.271Z,95292.14
2018-11-07T12:27:43.527Z,95291.19
2018-11-07T12:30:14.588Z,95291.09
2018-11-07T12:32:44.456Z,95290.34
2018-11-07T12:35:13.621Z,95287.67
2018-11-07T12:37:42.676Z,95286.95
2018-11-07T12:40:12.189Z,95285.96
2018-11-07T12:42:41.047Z,95287.67
2018-11-07T12:45:11.590Z,95284.80
2018-11-07T12:47:40.986Z,95290.67
2018-11-07T12:50:13.894Z,95287.12
2018-11-07T12:52:43.261Z,95281.28
2018-11-07T12:55:12.921Z,95280.77
2018-11-07T12:57:41.833Z,95284.28
2018-11-07T13:00:14.978Z,95279.75
2018-11-07T13:02:43.912Z,95275.19
2018-11-07T13:05:14.376Z,95276.93
2018-11-07T13:07:44.106Z,95273.23
2018-11-07T13:10:16.166Z,95272.52
2018-11-07T13:12:45.633Z,95273.17
2018-11-07T13:15:15.078Z,95277.34
2018-11-07T13:17:44.099Z,95274.14
2018-11-07T13:20:15.140Z,95270.59
2018-11-07T13:22:45.045Z,95273.81
2018-11-07T13:25:14.350Z,95268.59
2018-11-07T13:27:43.155Z,95269.37
2018-11-07T13:30:14.738Z,95271.56
2018-11-07T13:32:43.552Z,95272.25
2018-11-07T13:35:13.412Z,95275.16
2018-11-07T13:37:43.306Z,95274.14
2018-11-07T13:40:14.692Z,95268.26
2018-11-07T13:42:43.475Z,95271.31
2018-11-07T13:45:14.418Z,95272.55
2018-11-07T13:47:44.409Z,95264.41
2018-11-07T13:50:14.018Z,95267.57
2018-11-07T13:52:42.757Z,95266.40
2018-11-07T13:55:12.458Z,95268.23
2018-11-07T13:57:41.493Z,95265.89
2018-11-07T14:00:16.165Z,95265.20
2018-11-07T14:02:45.552Z,95264.87
2018-11-07T14:05:14.458Z,95267.12
2018-11-07T14:07:43.781Z,95267.33
2018-11-07T14:10:18.574Z,95269.25
2018-11-07T14:12:47.558Z,95273.92
2018-11-07T14:15:16.474Z,95272.30
2018-11-07T14:17:45.462Z,95279.56
2018-11-07T14:20:14.702Z,95273.59
2018-11-07T14:22:43.611Z,95272.92
2018-11-07T14:25:13.021Z,95276.49
2018-11-07T14:27:42.526Z,95273.19
2018-11-07T14:30:12.915Z,95273.61
2018-11-07T14:32:45.770Z,95273.95
2018-11-07T14:35:14.645Z,95276.96
2018-11-07T14:37:43.972Z,95275.29
2018-11-07T14:40:12.835Z,95273.67
2018-11-07T14:42:41.621Z,95276.13
2018-11-07T14:45:11.645Z,95279.34
2018-11-07T14:47:41.480Z,95280.16
2018-11-07T14:50:11.897Z,95280.19
2018-11-07T14:52:40.688Z,95281.14
2018-11-07T14:55:10.312Z,95280.77
2018-11-07T14:57:39.155Z,95278.63
2018-11-07T15:00:14.190Z,95280.91
2018-11-07T15:02:43.598Z,95288.13
2018-11-07T15:05:14.109Z,95284.91
2018-11-07T15:07:43.652Z,95285.20
2018-11-07T15:10:13.327Z,95288.54
2018-11-07T15:12:42.156Z,95290.50
2018-11-07T15:15:13.718Z,95293.02
2018-11-07T15:17:43.025Z,95292.53
2018-11-07T15:20:13.178Z,95293.13
2018-11-07T15:22:42.182Z,95291.31
2018-11-07T15:25:12.210Z,95296.95
2018-11-07T15:27:42.672Z,95291.69
2018-11-07T15:30:12.623Z,95296.53
2018-11-07T15:32:42.413Z,95291.69
2018-11-07T15:35:11.579Z,95298.66
2018-11-07T15:37:40.838Z,95295.73
2018-11-07T15:40:12.025Z,95294.69
2018-11-07T15:42:41.174Z,95297.52
2018-11-07T15:45:11.608Z,95298.33
2018-11-07T15:47:40.770Z,95303.98
2018-11-07T15:50:14.752Z,95302.97
2018-11-07T15:52:43.544Z,95300.10
2018-11-07T15:55:12.661Z,95305.78
2018-11-07T15:57:41.466Z,95305.74
2018-11-07T16:00:13.710Z,95312.73
2018-11-07T16:02:43.181Z,95318.56
2018-11-07T16:05:13.291Z,95317.75
2018-11-07T16:07:42.230Z,95324.52
2018-11-07T16:10:12.570Z,95325.24
2018-11-07T16:12:41.766Z,95325.24
2018-11-07T16:15:12.673Z,95327.13
2018-11-07T16:17:42.069Z,95331.58
2018-11-07T16:20:12.420Z,95337.44
2018-11-07T16:22:42.232Z,95331.54
2018-11-07T16:25:11.221Z,95329.80
2018-11-07T16:27:40.924Z,95332.71
2018-11-07T16:30:17.015Z,95338.03
2018-11-07T16:32:45.892Z,95338.34
2018-11-07T16:35:15.005Z,95335.09
2018-11-07T16:37:44.031Z,95340.73
2018-11-07T16:40:14.020Z,95340.20
2018-11-07T16:42:43.632Z,95344.33
2018-11-07T16:45:13.425Z,95341.86
2018-11-07T16:47:42.543Z,95340.92
2018-11-07T16:50:12.641Z,95344.43
2018-11-07T16:52:41.816Z,95345.61
2018-11-07T16:55:10.798Z,95354.19
2018-11-07T16:57:39.802Z,95350.96
2018-11-07T17:00:13.051Z,95355.15
2018-11-07T17:02:42.162Z,95351.39
2018-11-07T17:05:17.783Z,95352.08
2018-11-07T17:07:46.747Z,95353.39
2018-11-07T17:10:16.094Z,95353.92
2018-11-07T17:12:44.916Z,95353.11
2018-11-07T17:15:14.111Z,95357.11
2018-11-07T17:17:42.915Z,95355.17
2018-11-07T17:20:13.148Z,95349.61
2018-11-07T17:22:42.291Z,95356.80
2018-11-07T17:25:13.301Z,95357.57
2018-11-07T17:27:42.440Z,95349.06
2018-11-07T17:30:12.951Z,95366.19
2018-11-07T17:32:41.859Z,95358.22
2018-11-07T17:35:12.526Z,95356.64
2018-11-07T17:37:41.595Z,95359.36
2018-11-07T17:40:13.307Z,95360.22
2018-11-07T17:42:42.098Z,95368.91
2018-11-07T17:45:12.915Z,95361.62
2018-11-07T17:47:42.420Z,95363.61
2018-11-07T17:50:12.849Z,95364.61
2018-11-07T17:52:41.847Z,95369.55
2018-11-07T17:55:12.119Z,95366.73
2018-11-07T17:57:40.964Z,95369.77
2018-11-07T18:00:16.150Z,95369.36
2018-11-07T18:02:45.018Z,95362.98
2018-11-07T18:05:13.794Z,95368.59
2018-11-07T18:07:42.652Z,95365.24
2018-11-07T18:10:16.072Z,95366.73
2018-11-07T18:12:45.266Z,95370.31
2018-11-07T18:15:14.254Z,95375.92
2018-11-07T18:17:43.138Z,95375.16
2018-11-07T18:20:13.160Z,95371.75
2018-11-07T18:22:42.156Z,95376.69
2018-11-07T18:25:12.253Z,95377.36
2018-11-07T18:27:41.488Z,95377.99
2018-11-07T18:30:12.295Z,95384.10
2018-11-07T18:32:41.752Z,95379.35
2018-11-07T18:35:12.047Z,95381.11
2018-11-07T18:37:41.045Z,95381.65
2018-11-07T18:40:11.720Z,95381.34
2018-11-07T18:42:40.869Z,95388.39
2018-11-07T18:45:16.074Z,95385.08
2018-11-07T18:47:46.038Z,95388.95
2018-11-07T18:50:16.414Z,95394.55
2018-11-07T18:52:45.487Z,95393.13
2018-11-07T18:55:15.458Z,95387.57
2018-11-07T18:57:44.911Z,95390.88
2018-11-07T19:00:16.019Z,95400.05
2018-11-07T19:02:45.520Z,95400.91
2018-11-07T19:05:14.571Z,95398.17
2018-11-07T19:07:43.741Z,95401.72
2018-11-07T19:10:20.402Z,95405.33
2018-11-07T19:12:49.702Z,95405.29
2018-11-07T19:15:18.898Z,95408.84
2018-11-07T19:17:48.707Z,95409.83
2018-11-07T19:20:18.185Z,95410.07
2018-11-07T19:22:47.396Z,95413.22
2018-11-07T19:25:17.534Z,95411.09
2018-11-07T19:27:46.383Z,95412.47
2018-11-07T19:30:16.493Z,95418.52
2018-11-07T19:32:47.005Z,95418.00
2018-11-07T19:35:16.972Z,95421.27
2018-11-07T19:37:46.136Z,95420.45
2018-11-07T19:40:17.537Z,95428.91
2018-11-07T19:42:46.447Z,95419.89
2018-11-07T19:45:16.622Z,95425.20
2018-11-07T19:47:45.392Z,95426.14
2018-11-07T19:50:15.564Z,95429.42
2018-11-07T19:52:45.138Z,95424.89
2018-11-07T19:55:16.868Z,95425.20
2018-11-07T19:57:47.897Z,95428.32
2018-11-07T20:00:17.451Z,95422.77
2018-11-07T20:02:47.202Z,95417.38
2018-11-07T20:05:16.059Z,95419.36
2018-11-07T20:07:44.839Z,95418.54
2018-11-07T20:10:15.505Z,95418.20
2018-11-07T20:12:44.480Z,95413.72
2018-11-07T20:15:14.383Z,95414.68
2018-11-07T20:17:43.226Z,95420.56
2018-11-07T20:20:12.868Z,95414.16
2018-11-07T20:22:41.706Z,95411.38
2018-11-07T20:25:11.782Z,95409.59
2018-11-07T20:27:40.894Z,95417.64
2018-11-07T20:30:12.155Z,95417.47
2018-11-07T20:32:41.058Z,95409.77
2018-11-07T20:35:11.572Z,95418.12
2018-11-07T20:37:40.393Z,95415.23
2018-11-07T20:40:11.528Z,95421.08
2018-11-07T20:42:40.362Z,95424.52
2018-11-07T20:45:10.155Z,95426.95
2018-11-07T20:47:39.702Z,95425.30
2018-11-07T20:50:11.575Z,95426.78
2018-11-07T20:52:40.933Z,95425.45
2018-11-07T20:55:10.383Z,95432.44
2018-11-07T20:57:39.274Z,95428.68
2018-11-07T21:00:11.965Z,95430.92
2018-11-07T21:02:41.159Z,95422.08
2018-11-07T21:05:10.246Z,95424.98
2018-11-07T21:07:39.544Z,95427.48
2018-11-07T21:10:10.917Z,95425.39
2018-11-07T21:12:40.123Z,95426.55
2018-11-07T21:15:09.693Z,95422.45
2018-11-07T21:17:39.225Z,95425.47
2018-11-07T21:20:08.727Z,95430.62
2018-11-07T21:22:37.706Z,95432.50
2018-11-07T21:25:06.807Z,95430.48
2018-11-07T21:27:35.592Z,95427.27
2018-11-07T21:30:13.559Z,95429.16
2018-11-07T21:32:42.743Z,95427.92
2018-11-07T21:35:11.676Z,95429.48
2018-11-07T21:37:40.903Z,95426.75
2018-11-07T21:40:12.437Z,95428.22
2018-11-07T21:42:41.222Z,95428.39
2018-11-07T21:45:11.716Z,95427.64
2018-11-07T21:47:41.054Z,95430.27
2018-11-07T21:50:11.256Z,95433.70
2018-11-07T21:52:40.385Z,95428.14
2018-11-07T21:55:09.223Z,95434.67
2018-11-07T21:57:38.375Z,95432.70
2018-11-07T22:00:15.937Z,95434.17
2018-11-07T22:02:45.010Z,95428.80
2018-11-07T22:05:14.632Z,95428.14
2018-11-07T22:07:43.733Z,95430.59
2018-11-07T22:10:13.650Z,95432.87
2018-11-07T22:12:42.438Z,95426.50
2018-11-07T22:15:11.337Z,95428.64
2018-11-07T22:17:40.187Z,95427.98
2018-11-07T22:20:12.738Z,95426.17
2018-11-07T22:22:41.547Z,95424.72
2018-11-07T22:25:10.319Z,95423.41
2018-11-07T22:27:39.218Z,95418.70
2018-11-07T22:30:10.854Z,95421.81
2018-11-07T22:32:40.064Z,95422.30
2018-11-07T22:35:10.703Z,95416.25
2018-11-07T22:37:39.434Z,95413.33
2018-11-07T22:40:10.098Z,95413.20
2018-11-07T22:42:38.898Z,95415.34
2018-11-07T22:45:08.099Z,95416.34
2018-11-07T22:47:37.203Z,95404.45
2018-11-07T22:50:06.803Z,95408.70
2018-11-07T22:52:35.621Z,95409.41
2018-11-07T22:55:04.536Z,95407.23
2018-11-07T22:57:33.317Z,95406.41
2018-11-07T23:00:02.153Z,95402.97
2018-11-07T23:02:31.354Z,95403.31
2018-11-07T23:05:00.125Z,95404.13
2018-11-07T23:07:28.905Z,95404.46
2018-11-07T23:09:57.710Z,95406.59
2018-11-07T23:12:26.579Z,95406.08
2018-11-07T23:14:55.308Z,95401.30
2018-11-07T23:17:24.092Z,95401.12
2018-11-07T23:19:52.812Z,95406.80
2018-11-07T23:22:21.510Z,95404.81
2018-11-07T23:24:50.260Z,95403.13
2018-11-07T23:27:19.020Z,95398.89
2018-11-07T23:29:47.747Z,95396.32
2018-11-07T23:32:16.523Z,95396.38
2018-11-07T23:34:45.267Z,95398.29
2018-11-07T23:37:14.035Z,95390.60
2018-11-07T23:39:42.758Z,95387.51
2018-11-07T23:42:11.502Z,95394.05
2018-11-07T23:44:40.237Z,95390.19
2018-11-07T23:47:09.001Z,95389.70
2018-11-07T23:49:37.916Z,95386.16
2018-11-07T23:52:07.063Z,95391.92
2018-11-07T23:54:35.842Z,95392.75
2018-11-07T23:57:04.622Z,95385.13
2018-11-07T23:59:33.408Z,95391.66
